createdAt,value
2019-06-26T00:01:49.341Z,15.55
2019-06-26T00:07:34.908Z,14.10
2019-06-26T00:13:26.074Z,13.95
2019-06-26T00:15:51.810Z,14.85
2019-06-26T00:18:25.269Z,15.90
2019-06-26T00:20:58.905Z,14.98
2019-06-26T00:23:28.684Z,14.87
2019-06-26T00:25:58.295Z,13.68
2019-06-26T00:28:28.819Z,12.95
2019-06-26T00:30:57.305Z,14.28
2019-06-26T00:33:26.055Z,15.13
2019-06-26T00:35:54.819Z,14.80
2019-06-26T00:38:23.649Z,14.58
2019-06-26T00:40:58.018Z,15.55
2019-06-26T00:43:41.430Z,16.02
2019-06-26T00:49:11.754Z,15.23
2019-06-26T00:54:56.924Z,15.65
2019-06-26T00:57:53.999Z,15.70
2019-06-26T01:00:29.965Z,14.28
2019-06-26T01:06:34.811Z,16.57
2019-06-26T01:15:20.091Z,15.75
2019-06-26T01:17:58.047Z,15.30
2019-06-26T01:20:26.561Z,16.73
2019-06-26T01:22:55.029Z,20.27
2019-06-26T01:25:24.549Z,20.10
2019-06-26T01:27:53.022Z,17.95
2019-06-26T01:30:21.859Z,20.23
2019-06-26T01:32:50.266Z,17.42
2019-06-26T01:35:19.793Z,17.92
2019-06-26T01:37:48.260Z,18.80
2019-06-26T01:40:16.784Z,17.75
2019-06-26T01:42:45.452Z,16.27
2019-06-26T01:45:13.924Z,19.40
2019-06-26T01:47:50.407Z,19.23
2019-06-26T01:50:21.138Z,18.55
2019-06-26T01:52:55.711Z,18.82
2019-06-26T01:55:24.176Z,18.45
2019-06-26T01:57:52.900Z,19.37
2019-06-26T02:00:23.375Z,17.55
2019-06-26T02:02:53.902Z,18.63
2019-06-26T02:05:22.399Z,18.50
2019-06-26T02:07:51.258Z,17.92
2019-06-26T02:10:21.057Z,17.45
2019-06-26T02:12:54.340Z,17.10
2019-06-26T02:18:48.361Z,15.90
2019-06-26T02:21:35.244Z,15.10
2019-06-26T02:24:07.211Z,15.90
2019-06-26T02:30:04.087Z,14.95
2019-06-26T02:38:51.098Z,16.67
2019-06-26T02:41:27.091Z,16.23
2019-06-26T02:43:55.575Z,17.00
2019-06-26T02:46:26.061Z,16.50
2019-06-26T02:48:54.602Z,16.40
2019-06-26T02:51:23.384Z,15.98
2019-06-26T02:53:53.861Z,15.93
2019-06-26T02:56:23.363Z,15.63
2019-06-26T02:58:51.848Z,15.38
2019-06-26T03:01:21.353Z,15.70
2019-06-26T03:03:50.123Z,15.13
2019-06-26T03:06:18.608Z,14.15
2019-06-26T03:08:47.100Z,14.78
2019-06-26T03:11:17.607Z,14.87
2019-06-26T03:13:46.345Z,14.43
2019-06-26T03:19:44.051Z,14.03
2019-06-26T03:22:29.670Z,13.72
2019-06-26T03:28:03.907Z,14.07
2019-06-26T03:30:37.857Z,14.35
2019-06-26T03:33:10.170Z,14.38
2019-06-26T03:35:55.593Z,13.40
2019-06-26T03:38:25.769Z,13.62
2019-06-26T03:44:10.585Z,13.15
2019-06-26T03:49:56.637Z,12.65
2019-06-26T03:55:41.622Z,12.73
2019-06-26T04:04:08.028Z,12.43
2019-06-26T04:06:38.456Z,12.98
2019-06-26T04:12:23.365Z,11.83
2019-06-26T04:14:53.871Z,11.48
2019-06-26T04:17:33.343Z,11.40
2019-06-26T04:20:01.870Z,11.05
2019-06-26T04:22:36.266Z,11.68
2019-06-26T04:25:05.088Z,10.93
2019-06-26T04:27:35.574Z,10.85
2019-06-26T04:30:07.614Z,11.40
2019-06-26T04:32:36.106Z,11.00
2019-06-26T04:35:04.774Z,11.08
2019-06-26T04:37:34.296Z,11.18
2019-06-26T04:40:02.912Z,11.05
2019-06-26T04:42:31.356Z,10.48
2019-06-26T04:44:59.910Z,10.98
2019-06-26T04:47:28.631Z,12.18
2019-06-26T04:49:57.146Z,11.30
2019-06-26T04:52:25.604Z,10.90
2019-06-26T04:54:54.114Z,10.98
2019-06-26T04:57:22.577Z,10.80
2019-06-26T04:59:51.063Z,11.55
2019-06-26T05:02:19.618Z,12.05
2019-06-26T05:04:48.451Z,11.12
2019-06-26T05:07:30.095Z,11.45
2019-06-26T05:09:58.611Z,11.65
2019-06-26T05:12:27.161Z,12.65
2019-06-26T05:14:55.502Z,12.03
2019-06-26T05:17:25.049Z,11.83
2019-06-26T05:22:57.311Z,12.87
2019-06-26T05:25:27.834Z,12.00
2019-06-26T05:27:56.289Z,12.03
2019-06-26T05:30:25.075Z,14.28
2019-06-26T05:32:53.978Z,13.75
2019-06-26T05:35:23.491Z,14.40
2019-06-26T05:38:03.837Z,13.10
2019-06-26T05:40:36.313Z,14.10
2019-06-26T05:43:21.410Z,13.13
2019-06-26T05:46:00.872Z,12.73
2019-06-26T05:48:39.098Z,13.40
2019-06-26T05:57:42.240Z,12.85
2019-06-26T06:00:13.434Z,12.43
2019-06-26T06:06:02.480Z,13.62
2019-06-26T06:08:43.198Z,13.15
2019-06-26T06:14:28.213Z,11.05
2019-06-26T06:16:57.741Z,12.37
2019-06-26T06:19:32.635Z,12.45
2019-06-26T06:22:04.919Z,12.80
2019-06-26T06:24:35.431Z,12.20
2019-06-26T06:27:04.941Z,12.37
2019-06-26T06:29:38.650Z,12.45
2019-06-26T06:32:18.711Z,12.43
2019-06-26T06:34:47.190Z,11.40
2019-06-26T06:37:16.677Z,12.35
2019-06-26T06:39:57.253Z,11.60
2019-06-26T06:42:46.204Z,12.50
2019-06-26T06:48:43.720Z,12.28
2019-06-26T06:54:31.588Z,11.93
2019-06-26T07:00:16.911Z,11.93
2019-06-26T07:02:45.278Z,11.40
2019-06-26T07:08:30.125Z,11.22
2019-06-26T07:14:15.334Z,10.85
2019-06-26T07:17:01.621Z,10.65
2019-06-26T07:22:46.891Z,10.82
2019-06-26T07:25:15.523Z,12.20
2019-06-26T07:30:48.514Z,11.50
2019-06-26T07:36:28.789Z,11.10
2019-06-26T07:44:47.678Z,10.00
2019-06-26T07:47:22.903Z,9.78
2019-06-26T07:49:53.584Z,9.83
2019-06-26T07:52:22.998Z,10.25
2019-06-26T07:54:52.511Z,9.90
2019-06-26T07:57:24.890Z,10.40
2019-06-26T07:59:55.448Z,10.72
2019-06-26T08:02:24.929Z,9.73
2019-06-26T08:04:54.411Z,9.80
2019-06-26T08:07:23.193Z,9.80
2019-06-26T08:09:51.988Z,10.13
2019-06-26T08:12:20.482Z,9.73
2019-06-26T08:14:51.402Z,10.08
2019-06-26T08:17:26.441Z,9.63
2019-06-26T08:20:21.367Z,9.50
2019-06-26T08:35:02.856Z,9.20
2019-06-26T08:37:48.750Z,9.10
2019-06-26T08:40:32.303Z,8.58
2019-06-26T08:46:05.601Z,8.63
2019-06-26T08:48:39.698Z,9.83
2019-06-26T08:51:02.734Z,9.00
2019-06-26T08:53:31.032Z,9.68
2019-06-26T08:56:00.579Z,10.00
2019-06-26T08:58:29.005Z,8.17
2019-06-26T09:00:58.711Z,8.90
2019-06-26T09:03:27.118Z,8.83
2019-06-26T09:05:56.647Z,9.05
2019-06-26T09:08:34.825Z,9.07
2019-06-26T09:11:04.326Z,8.50
2019-06-26T09:13:34.037Z,8.15
2019-06-26T09:16:03.667Z,8.00
2019-06-26T09:18:35.810Z,8.55
2019-06-26T09:21:03.051Z,8.73
2019-06-26T09:23:43.910Z,8.30
2019-06-26T09:26:19.467Z,8.88
2019-06-26T09:28:53.058Z,8.43
2019-06-26T09:31:27.749Z,8.95
2019-06-26T09:33:57.766Z,8.23
2019-06-26T09:36:27.481Z,7.58
2019-06-26T09:39:05.064Z,7.40
2019-06-26T09:41:37.040Z,7.70
2019-06-26T09:44:05.456Z,8.50
2019-06-26T09:46:33.890Z,8.88
2019-06-26T09:49:03.441Z,7.10
2019-06-26T09:51:33.158Z,7.03
2019-06-26T09:54:01.841Z,7.23
2019-06-26T09:56:30.279Z,7.05
2019-06-26T09:58:59.771Z,6.67
2019-06-26T10:01:28.265Z,6.65
2019-06-26T10:03:56.737Z,6.92
2019-06-26T10:06:25.310Z,6.92
2019-06-26T10:08:54.852Z,6.80
2019-06-26T10:11:23.210Z,6.73
2019-06-26T10:13:57.927Z,7.42
2019-06-26T10:16:26.353Z,6.80
2019-06-26T10:19:08.929Z,6.60
2019-06-26T10:21:23.773Z,7.87
2019-06-26T10:23:51.987Z,8.63
2019-06-26T10:26:21.428Z,7.40
2019-06-26T10:28:51.258Z,6.83
2019-06-26T10:31:20.021Z,7.40
2019-06-26T10:33:48.735Z,7.10
2019-06-26T10:36:17.171Z,6.40
2019-06-26T10:38:45.872Z,6.78
2019-06-26T10:41:14.342Z,7.28
2019-06-26T10:43:46.039Z,7.37
2019-06-26T10:46:18.375Z,6.45
2019-06-26T10:48:49.764Z,6.87
2019-06-26T10:51:18.887Z,6.35
2019-06-26T10:53:51.733Z,6.70
2019-06-26T10:56:22.639Z,6.97
2019-06-26T10:58:51.328Z,6.00
2019-06-26T11:01:26.566Z,6.37
2019-06-26T11:03:53.080Z,5.12
2019-06-26T11:06:37.428Z,5.35
2019-06-26T11:09:12.130Z,5.15
2019-06-26T11:11:41.610Z,5.62
2019-06-26T11:14:10.025Z,5.13
2019-06-26T11:16:38.751Z,4.97
2019-06-26T11:19:07.357Z,5.40
2019-06-26T11:21:38.735Z,5.75
2019-06-26T11:24:09.268Z,5.22
2019-06-26T11:26:38.925Z,5.95
2019-06-26T11:29:10.100Z,5.62
2019-06-26T11:31:40.829Z,5.22
2019-06-26T11:34:09.310Z,5.17
2019-06-26T11:37:03.603Z,5.62
2019-06-26T11:39:25.333Z,6.08
2019-06-26T11:41:53.812Z,5.87
2019-06-26T11:44:22.310Z,5.78
2019-06-26T11:46:51.143Z,5.47
2019-06-26T11:49:20.378Z,5.45
2019-06-26T11:51:48.904Z,5.85
2019-06-26T11:54:17.594Z,5.15
2019-06-26T11:56:46.036Z,5.90
2019-06-26T11:59:16.035Z,5.85
2019-06-26T12:01:44.549Z,5.85
2019-06-26T12:04:18.446Z,6.08
2019-06-26T12:06:46.931Z,5.50
2019-06-26T12:09:15.384Z,6.00
2019-06-26T12:11:44.181Z,5.62
2019-06-26T12:14:12.773Z,5.78
2019-06-26T12:16:41.284Z,6.30
2019-06-26T12:19:09.762Z,6.17
2019-06-26T12:21:38.272Z,6.12
2019-06-26T12:24:10.844Z,6.35
2019-06-26T12:26:39.307Z,6.97
2019-06-26T12:29:08.038Z,5.97
2019-06-26T12:31:37.483Z,6.47
2019-06-26T12:34:06.264Z,6.67
2019-06-26T12:36:34.753Z,5.93
2019-06-26T12:39:05.275Z,5.97
2019-06-26T12:41:33.772Z,5.70
2019-06-26T12:44:02.280Z,5.83
2019-06-26T12:46:30.754Z,6.08
2019-06-26T12:48:59.463Z,6.80
2019-06-26T12:51:27.926Z,6.03
2019-06-26T12:53:58.511Z,5.55
2019-06-26T12:56:25.317Z,4.87
2019-06-26T12:58:54.006Z,4.78
2019-06-26T13:01:25.116Z,4.97
2019-06-26T13:03:52.339Z,4.50
2019-06-26T13:06:20.824Z,4.60
2019-06-26T13:08:49.305Z,4.85
2019-06-26T13:11:17.786Z,4.90
2019-06-26T13:16:23.014Z,3.85
2019-06-26T13:18:51.578Z,4.78
2019-06-26T13:21:20.284Z,5.30
2019-06-26T13:23:48.757Z,4.90
2019-06-26T13:26:17.239Z,5.22
2019-06-26T13:28:45.735Z,4.60
2019-06-26T13:31:14.202Z,5.12
2019-06-26T13:33:42.664Z,4.85
2019-06-26T13:36:13.185Z,4.62
2019-06-26T13:38:41.670Z,4.60
2019-06-26T13:41:10.231Z,4.40
2019-06-26T13:43:38.734Z,4.70
2019-06-26T13:46:08.173Z,5.42
2019-06-26T13:48:36.734Z,4.17
2019-06-26T13:51:09.904Z,4.80
2019-06-26T13:53:34.843Z,5.08
2019-06-26T13:56:10.270Z,5.37
2019-06-26T13:58:38.757Z,6.17
2019-06-26T14:01:07.293Z,5.22
2019-06-26T14:03:35.730Z,5.20
2019-06-26T14:06:04.204Z,5.75
2019-06-26T14:08:33.718Z,4.40
2019-06-26T14:11:02.213Z,4.80
2019-06-26T14:13:31.188Z,5.12
2019-06-26T14:15:59.684Z,4.75
2019-06-26T14:18:30.498Z,4.75
2019-06-26T14:20:57.668Z,4.77
2019-06-26T14:23:26.151Z,5.17
2019-06-26T14:25:55.697Z,5.03
2019-06-26T14:28:24.410Z,4.33
2019-06-26T14:30:53.893Z,4.62
2019-06-26T14:33:23.183Z,4.90
2019-06-26T14:35:51.632Z,4.92
2019-06-26T14:38:20.096Z,4.97
2019-06-26T14:40:48.589Z,5.12
2019-06-26T14:43:18.088Z,4.97
2019-06-26T14:45:46.579Z,5.00
2019-06-26T14:48:15.097Z,4.78
2019-06-26T14:50:45.484Z,4.83
2019-06-26T14:53:13.981Z,5.15
2019-06-26T14:55:42.465Z,4.58
2019-06-26T14:58:10.973Z,5.00
2019-06-26T15:00:39.407Z,4.58
2019-06-26T15:03:08.152Z,4.90
2019-06-26T15:05:37.074Z,5.05
2019-06-26T15:08:05.575Z,4.72
2019-06-26T15:10:34.129Z,4.37
2019-06-26T15:13:02.571Z,4.65
2019-06-26T15:15:32.319Z,4.47
2019-06-26T15:18:01.815Z,4.60
2019-06-26T15:20:30.237Z,4.80
2019-06-26T15:23:02.050Z,4.87
2019-06-26T15:25:32.938Z,4.22
2019-06-26T15:28:01.475Z,4.67
2019-06-26T15:30:29.948Z,4.85
2019-06-26T15:32:58.389Z,4.20
2019-06-26T15:35:28.254Z,4.47
2019-06-26T15:37:57.702Z,4.30
2019-06-26T15:40:28.378Z,4.50
2019-06-26T15:42:59.069Z,4.40
2019-06-26T15:45:28.297Z,4.33
2019-06-26T15:47:57.272Z,4.25
2019-06-26T15:50:25.747Z,4.63
2019-06-26T15:52:56.835Z,4.67
2019-06-26T15:55:25.388Z,3.98
2019-06-26T15:57:54.568Z,4.20
2019-06-26T16:00:23.761Z,4.73
2019-06-26T16:02:52.244Z,4.90
2019-06-26T16:05:20.807Z,4.10
2019-06-26T16:07:49.486Z,4.40
2019-06-26T16:10:17.881Z,4.22
2019-06-26T16:12:46.374Z,4.45
2019-06-26T16:15:14.845Z,4.33
2019-06-26T16:17:47.624Z,4.65
2019-06-26T16:20:16.394Z,4.78
2019-06-26T16:22:44.964Z,4.00
2019-06-26T16:25:13.537Z,5.35
2019-06-26T16:27:42.219Z,4.92
2019-06-26T16:30:10.982Z,4.22
2019-06-26T16:32:39.609Z,4.85
2019-06-26T16:35:11.994Z,5.08
2019-06-26T16:37:38.029Z,4.35
2019-06-26T16:40:06.510Z,4.67
2019-06-26T16:42:34.986Z,5.17
2019-06-26T16:45:03.497Z,4.75
2019-06-26T16:47:32.326Z,4.90
2019-06-26T16:50:00.763Z,4.47
2019-06-26T16:52:29.225Z,4.95
2019-06-26T16:54:57.712Z,4.78
2019-06-26T16:57:26.445Z,4.87
2019-06-26T17:00:08.411Z,5.25
2019-06-26T17:02:24.085Z,4.78
2019-06-26T17:04:52.837Z,4.60
2019-06-26T17:07:21.330Z,4.85
2019-06-26T17:09:49.724Z,4.78
2019-06-26T17:12:18.210Z,4.60
2019-06-26T17:14:46.728Z,5.60
2019-06-26T17:17:15.701Z,5.20
2019-06-26T17:19:44.532Z,4.90
2019-06-26T17:22:12.967Z,5.72
2019-06-26T17:24:41.703Z,5.03
2019-06-26T17:27:10.133Z,6.28
2019-06-26T17:29:38.617Z,5.42
2019-06-26T17:32:07.351Z,5.30
2019-06-26T17:34:36.034Z,5.20
2019-06-26T17:37:04.699Z,5.22
2019-06-26T17:39:33.170Z,6.87
2019-06-26T17:42:02.910Z,5.50
2019-06-26T17:44:31.366Z,5.43
2019-06-26T17:46:59.850Z,5.37
2019-06-26T17:49:28.386Z,5.10
2019-06-26T17:51:56.928Z,5.08
2019-06-26T17:54:25.455Z,5.33
2019-06-26T17:56:53.986Z,5.65
2019-06-26T17:59:22.502Z,5.08
2019-06-26T18:01:51.055Z,5.03
2019-06-26T18:04:25.989Z,5.00
2019-06-26T18:06:54.476Z,5.25
2019-06-26T18:09:23.110Z,5.10
2019-06-26T18:11:51.510Z,5.30
2019-06-26T18:14:25.705Z,5.50
2019-06-26T18:16:54.181Z,5.30
2019-06-26T18:19:22.876Z,5.15
2019-06-26T18:21:51.356Z,5.08
2019-06-26T18:24:19.946Z,5.62
2019-06-26T18:26:48.401Z,5.30
2019-06-26T18:29:16.902Z,5.78
2019-06-26T18:31:45.370Z,5.35
2019-06-26T18:34:13.835Z,4.92
2019-06-26T18:36:43.210Z,5.40
2019-06-26T18:39:11.723Z,5.33
2019-06-26T18:41:40.208Z,5.58
2019-06-26T18:44:08.777Z,5.35
2019-06-26T18:46:37.278Z,5.60
2019-06-26T18:49:05.675Z,5.70
2019-06-26T18:51:34.162Z,6.17
2019-06-26T18:54:02.720Z,5.85
2019-06-26T18:56:31.118Z,6.08
2019-06-26T18:58:59.844Z,6.20
2019-06-26T19:01:29.004Z,5.85
2019-06-26T19:03:57.468Z,6.12
2019-06-26T19:06:26.269Z,5.70
2019-06-26T19:08:54.754Z,5.72
2019-06-26T19:11:23.230Z,6.92
2019-06-26T19:13:51.697Z,6.10
2019-06-26T19:16:20.163Z,7.60
2019-06-26T19:18:48.629Z,6.15
2019-06-26T19:21:17.136Z,7.33
2019-06-26T19:23:45.596Z,6.42
2019-06-26T19:26:15.638Z,6.47
2019-06-26T19:28:46.136Z,6.37
2019-06-26T19:31:14.622Z,6.58
2019-06-26T19:33:46.499Z,6.65
2019-06-26T19:36:27.455Z,5.80
2019-06-26T19:38:55.854Z,6.50
2019-06-26T19:41:50.123Z,6.87
2019-06-26T19:44:37.975Z,6.35
2019-06-26T19:47:13.509Z,7.25
2019-06-26T19:49:54.403Z,6.45
2019-06-26T19:52:23.971Z,6.37
2019-06-26T19:54:52.621Z,7.28
2019-06-26T19:57:23.093Z,7.53
2019-06-26T19:59:51.834Z,7.25
2019-06-26T20:02:20.258Z,7.30
2019-06-26T20:04:48.842Z,7.33
2019-06-26T20:07:17.226Z,7.97
2019-06-26T20:09:46.745Z,7.70
2019-06-26T20:12:15.204Z,7.60
2019-06-26T20:14:44.099Z,7.78
2019-06-26T20:20:28.541Z,7.65
2019-06-26T20:23:02.752Z,7.42
2019-06-26T20:25:32.981Z,7.58
2019-06-26T20:31:29.838Z,7.90
2019-06-26T20:34:00.260Z,8.38
2019-06-26T20:36:35.401Z,8.73
2019-06-26T20:42:16.296Z,8.18
2019-06-26T20:44:44.736Z,8.78
2019-06-26T20:47:13.280Z,8.70
2019-06-26T20:49:52.544Z,9.00
2019-06-26T20:52:10.217Z,8.23
2019-06-26T20:54:38.959Z,8.70
2019-06-26T20:57:07.392Z,9.25
2019-06-26T20:59:36.220Z,8.98
2019-06-26T21:02:05.263Z,8.90
2019-06-26T21:04:35.698Z,8.85
2019-06-26T21:07:04.199Z,8.83
2019-06-26T21:09:32.664Z,8.70
2019-06-26T21:12:01.878Z,8.43
2019-06-26T21:14:30.337Z,8.43
2019-06-26T21:20:15.576Z,9.45
2019-06-26T21:25:49.912Z,9.05
2019-06-26T21:31:35.164Z,9.85
2019-06-26T21:43:23.366Z,9.43
2019-06-26T21:45:52.051Z,10.10
2019-06-26T21:48:21.610Z,9.85
2019-06-26T21:50:50.020Z,10.00
2019-06-26T21:53:18.652Z,8.78
2019-06-26T21:56:05.013Z,9.53
2019-06-26T21:58:51.678Z,10.05
2019-06-26T22:01:38.535Z,10.45
2019-06-26T22:04:26.111Z,9.75
2019-06-26T22:06:54.568Z,10.38
2019-06-26T22:09:23.121Z,10.20
2019-06-26T22:11:51.888Z,10.00
2019-06-26T22:14:21.569Z,9.90
2019-06-26T22:16:51.104Z,10.75
2019-06-26T22:22:33.805Z,10.38
2019-06-26T22:25:02.425Z,10.60
2019-06-26T22:27:32.993Z,10.60
2019-06-26T22:30:30.098Z,10.65
2019-06-26T22:33:17.023Z,10.98
2019-06-26T22:39:22.425Z,11.85
2019-06-26T22:42:02.513Z,10.50
2019-06-26T22:44:35.961Z,11.50
2019-06-26T22:47:04.562Z,11.83
2019-06-26T22:49:35.128Z,11.12
2019-06-26T22:52:05.614Z,11.80
2019-06-26T22:54:34.277Z,11.97
2019-06-26T22:57:05.887Z,12.40
2019-06-26T22:59:35.710Z,11.80
2019-06-26T23:02:04.766Z,11.25
2019-06-26T23:04:34.388Z,11.95
2019-06-26T23:07:04.735Z,11.70
2019-06-26T23:09:35.684Z,11.73
2019-06-26T23:12:04.364Z,12.13
2019-06-26T23:14:33.673Z,11.35
2019-06-26T23:23:04.068Z,11.22
2019-06-26T23:25:34.998Z,11.18
2019-06-26T23:28:06.271Z,11.95
2019-06-26T23:30:34.801Z,11.88
2019-06-26T23:36:12.467Z,11.88
2019-06-26T23:42:00.599Z,11.97
2019-06-26T23:44:37.515Z,11.85
2019-06-26T23:47:06.241Z,11.85
2019-06-26T23:49:34.842Z,12.35
2019-06-26T23:52:05.071Z,13.03
2019-06-26T23:54:34.280Z,11.77
2019-06-26T23:57:02.758Z,12.47
2019-06-26T23:59:31.242Z,12.35
